Time;durP1;ratioP1;P1;durP2;ratioP2;P2;SDS_P1;SDS_P2;PMS_P1;PMS_P2;Temp;Humidity;BMP_temperature;BMP_pressure;BME280_temperature;BME280_humidity;BME280_pressure;Samples;Min_cycle;Max_cycle;Signal;HPM_P1;HPM_P2
2022/07/25 00:01:05;;;;;;;6.55;6.00;;;;;;;;;;4944649;29;20234;-82
2022/07/25 00:03:33;;;;;;;6.53;5.93;;;;;;;;;;4916603;29;20337;-82
2022/07/25 00:05:58;;;;;;;6.25;5.75;;;;;;;;;;4949569;28;20238;-82
2022/07/25 00:08:24;;;;;;;6.13;5.72;;;;;;;;;;4950392;28;20219;-81
2022/07/25 00:10:49;;;;;;;5.63;5.20;;;;;;;;;;4932397;29;20607;-82
2022/07/25 00:13:15;;;;;;;6.45;5.95;;;;;;;;;;4919952;28;20235;-82
2022/07/25 00:15:40;;;;;;;6.30;5.80;;;;;;;;;;4938864;29;20214;-83
2022/07/25 00:18:08;;;;;;;5.95;5.55;;;;;;;;;;4937956;28;20707;-81
2022/07/25 00:20:33;;;;;;;5.80;5.30;;;;;;;;;;4942282;29;20227;-81
2022/07/25 00:22:59;;;;;;;6.15;5.55;;;;;;;;;;4957719;28;20231;-82
2022/07/25 00:25:24;;;;;;;5.38;4.93;;;;;;;;;;4940881;28;20227;-80
2022/07/25 00:27:50;;;;;;;6.03;5.43;;;;;;;;;;4938258;29;20750;-80
2022/07/25 00:30:15;;;;;;;5.65;5.15;;;;;;;;;;4920216;28;20286;-83
2022/07/25 00:32:41;;;;;;;5.78;5.28;;;;;;;;;;4950223;28;20678;-82
2022/07/25 00:35:06;;;;;;;4.68;4.35;;;;;;;;;;4938023;28;20234;-82
2022/07/25 00:37:32;;;;;;;5.47;4.97;;;;;;;;;;4930253;29;20226;-79
2022/07/25 00:40:00;;;;;;;4.72;4.43;;;;;;;;;;4952403;29;20231;-81
2022/07/25 00:42:25;;;;;;;4.30;4.00;;;;;;;;;;4963136;28;20223;-81
2022/07/25 00:44:51;;;;;;;6.50;4.50;;;;;;;;;;4920201;29;20724;-82
2022/07/25 00:47:16;;;;;;;4.82;4.43;;;;;;;;;;4955734;28;20227;-80
2022/07/25 00:49:42;;;;;;;4.28;3.88;;;;;;;;;;4935600;29;20233;-81
2022/07/25 00:52:08;;;;;;;4.72;4.18;;;;;;;;;;4948455;29;20333;-82
2022/07/25 00:54:33;;;;;;;5.10;4.38;;;;;;;;;;4916360;29;20290;-83
2022/07/25 00:57:01;;;;;;;6.85;4.53;;;;;;;;;;4945803;29;20236;-81
2022/07/25 00:59:27;;;;;;;4.20;3.85;;;;;;;;;;4937255;29;20232;-82
2022/07/25 01:01:52;;;;;;;4.53;4.10;;;;;;;;;;4933632;29;20253;-81
2022/07/25 01:04:20;;;;;;;3.90;3.60;;;;;;;;;;4922421;28;20679;-83
2022/07/25 01:06:46;;;;;;;4.30;3.70;;;;;;;;;;4936538;29;20227;-82
2022/07/25 01:09:13;;;;;;;5.55;3.70;;;;;;;;;;4937105;28;20222;-83
2022/07/25 01:11:39;;;;;;;3.83;3.53;;;;;;;;;;4920354;29;20223;-82
2022/07/25 01:14:05;;;;;;;4.25;3.78;;;;;;;;;;4926378;28;20223;-83
2022/07/25 01:16:30;;;;;;;4.35;3.95;;;;;;;;;;4953715;29;20299;-83
2022/07/25 01:18:56;;;;;;;3.85;3.53;;;;;;;;;;4921240;29;20604;-82
2022/07/25 01:21:22;;;;;;;4.13;3.83;;;;;;;;;;4954193;28;20310;-82
2022/07/25 01:23:48;;;;;;;4.13;3.83;;;;;;;;;;4936371;29;20326;-82
2022/07/25 01:26:13;;;;;;;4.30;3.90;;;;;;;;;;4923611;28;20231;-83
2022/07/25 01:28:39;;;;;;;4.40;4.00;;;;;;;;;;4959408;28;20230;-82
2022/07/25 01:31:07;;;;;;;4.00;3.70;;;;;;;;;;4954299;28;20234;-82
2022/07/25 01:33:32;;;;;;;4.25;3.85;;;;;;;;;;4953372;28;20230;-83
2022/07/25 01:35:58;;;;;;;4.40;4.00;;;;;;;;;;4953013;28;20233;-82
2022/07/25 01:38:23;;;;;;;3.72;3.40;;;;;;;;;;4954125;28;20230;-80
2022/07/25 01:40:49;;;;;;;4.20;3.80;;;;;;;;;;4922221;29;20704;-82
2022/07/25 01:43:15;;;;;;;3.60;3.30;;;;;;;;;;4932902;28;20231;-82
2022/07/25 01:45:40;;;;;;;3.95;2.97;;;;;;;;;;4938061;29;20246;-82
2022/07/25 01:48:06;;;;;;;3.00;2.80;;;;;;;;;;4939101;28;20379;-83
2022/07/25 01:50:33;;;;;;;3.53;3.22;;;;;;;;;;4940170;29;20234;-82
2022/07/25 01:52:59;;;;;;;4.47;3.47;;;;;;;;;;4920351;29;20303;-82
2022/07/25 01:55:27;;;;;;;3.15;2.95;;;;;;;;;;4926283;28;20219;-83
2022/07/25 01:57:53;;;;;;;3.70;3.22;;;;;;;;;;4941153;29;20227;-82
2022/07/25 02:00:18;;;;;;;3.55;3.25;;;;;;;;;;4941869;28;20235;-83
2022/07/25 02:02:44;;;;;;;3.90;3.60;;;;;;;;;;4940006;29;20231;-82
2022/07/25 02:05:11;;;;;;;3.70;3.38;;;;;;;;;;4954581;28;20699;-82
2022/07/25 02:07:36;;;;;;;4.03;3.65;;;;;;;;;;4936612;29;20214;-83
2022/07/25 02:10:03;;;;;;;4.05;3.67;;;;;;;;;;4939399;29;20231;-83
2022/07/25 02:12:31;;;;;;;4.13;3.50;;;;;;;;;;4919009;29;20242;-82
2022/07/25 02:14:59;;;;;;;4.30;3.90;;;;;;;;;;4953473;29;20234;-82
2022/07/25 02:17:25;;;;;;;3.50;3.20;;;;;;;;;;4924691;28;20234;-84
2022/07/25 02:19:50;;;;;;;5.68;3.55;;;;;;;;;;4954266;29;20247;-83
2022/07/25 02:22:18;;;;;;;3.83;3.10;;;;;;;;;;4932982;28;20280;-84
2022/07/25 02:24:46;;;;;;;3.67;3.20;;;;;;;;;;4938223;29;20284;-84
2022/07/25 02:27:11;;;;;;;7.20;3.40;;;;;;;;;;4938509;28;20235;-82
2022/07/25 02:29:39;;;;;;;3.40;3.10;;;;;;;;;;4935288;29;20218;-83
2022/07/25 02:32:05;;;;;;;4.05;3.50;;;;;;;;;;4949522;28;20384;-84
2022/07/25 02:34:33;;;;;;;3.58;3.22;;;;;;;;;;4934709;29;20218;-82
2022/07/25 02:36:58;;;;;;;3.53;3.22;;;;;;;;;;4964106;28;20235;-82
2022/07/25 02:39:24;;;;;;;3.38;3.17;;;;;;;;;;4922758;28;20850;-82
2022/07/25 02:41:49;;;;;;;3.65;3.42;;;;;;;;;;4946626;29;20233;-82
2022/07/25 02:44:17;;;;;;;3.85;3.50;;;;;;;;;;4967368;28;20226;-82
2022/07/25 02:46:45;;;;;;;3.70;3.33;;;;;;;;;;4938547;29;20231;-80
2022/07/25 02:49:12;;;;;;;4.10;3.70;;;;;;;;;;4922448;28;20241;-81
2022/07/25 02:51:38;;;;;;;3.42;3.13;;;;;;;;;;4955550;28;20227;-82
2022/07/25 02:54:03;;;;;;;3.83;3.40;;;;;;;;;;4939421;28;20419;-82
2022/07/25 02:56:32;;;;;;;3.50;3.30;;;;;;;;;;4921862;29;20704;-83
2022/07/25 02:58:57;;;;;;;3.60;3.30;;;;;;;;;;4921127;29;20231;-82
2022/07/25 03:01:23;;;;;;;3.75;3.30;;;;;;;;;;4919606;28;20222;-82
2022/07/25 03:03:48;;;;;;;3.75;3.45;;;;;;;;;;4921563;29;20223;-83
2022/07/25 03:06:16;;;;;;;3.83;3.53;;;;;;;;;;4922249;28;20231;-83
2022/07/25 03:08:44;;;;;;;3.70;3.28;;;;;;;;;;4916318;29;20238;-83
2022/07/25 03:11:11;;;;;;;3.80;3.50;;;;;;;;;;4920414;28;20309;-83
2022/07/25 03:13:39;;;;;;;3.60;3.30;;;;;;;;;;4925560;29;20230;-82
2022/07/25 03:16:08;;;;;;;5.50;3.58;;;;;;;;;;4948577;29;20278;-82
2022/07/25 03:18:34;;;;;;;4.10;3.50;;;;;;;;;;4953165;28;20277;-83
2022/07/25 03:20:59;;;;;;;3.70;3.40;;;;;;;;;;4941364;29;20238;-81
2022/07/25 03:23:26;;;;;;;4.22;3.70;;;;;;;;;;4913822;28;20235;-82
2022/07/25 03:25:55;;;;;;;3.67;3.47;;;;;;;;;;4941224;29;20231;-83
2022/07/25 03:28:20;;;;;;;3.80;3.60;;;;;;;;;;4928984;28;20291;-82
2022/07/25 03:30:46;;;;;;;3.70;3.40;;;;;;;;;;4952851;29;20314;-83
2022/07/25 03:33:11;;;;;;;3.83;3.53;;;;;;;;;;4933684;28;20229;-83
2022/07/25 03:35:37;;;;;;;3.92;3.63;;;;;;;;;;4937198;29;20604;-83
2022/07/25 03:38:02;;;;;;;4.32;3.80;;;;;;;;;;4929105;28;20234;-81
2022/07/25 03:40:30;;;;;;;3.70;3.40;;;;;;;;;;4932957;29;20222;-82
2022/07/25 03:42:58;;;;;;;4.00;3.70;;;;;;;;;;4944397;29;20722;-82
2022/07/25 03:45:24;;;;;;;3.83;3.42;;;;;;;;;;4946092;28;20246;-82
2022/07/25 03:47:49;;;;;;;5.22;3.40;;;;;;;;;;4929226;29;20239;-83
2022/07/25 03:50:15;;;;;;;3.63;3.17;;;;;;;;;;4934118;28;20214;-80
2022/07/25 03:52:41;;;;;;;3.45;3.15;;;;;;;;;;4919096;29;20226;-79
2022/07/25 03:55:09;;;;;;;3.83;3.53;;;;;;;;;;4919362;28;20226;-82
2022/07/25 03:57:37;;;;;;;3.67;3.35;;;;;;;;;;4928291;29;20235;-79
2022/07/25 04:00:05;;;;;;;3.75;3.42;;;;;;;;;;4934367;28;20245;-80
2022/07/25 04:02:33;;;;;;;6.38;3.65;;;;;;;;;;4950736;28;20224;-79
2022/07/25 04:05:33;;;;;;;3.92;3.60;;;;;;;;;;4960011;28;20249;-81
2022/07/25 04:07:59;;;;;;;3.80;3.50;;;;;;;;;;4938832;29;20255;-80
2022/07/25 04:10:27;;;;;;;3.70;3.40;;;;;;;;;;4923754;28;20241;-81
2022/07/25 04:12:52;;;;;;;3.60;3.30;;;;;;;;;;4936715;29;20219;-81
2022/07/25 04:15:17;;;;;;;3.40;3.20;;;;;;;;;;4950855;28;20274;-80
2022/07/25 04:17:48;;;;;;;3.20;2.90;;;;;;;;;;4937426;29;20239;-82
2022/07/25 04:20:13;;;;;;;3.72;3.20;;;;;;;;;;4922212;28;20321;-81
2022/07/25 04:23:29;;;;;;;3.38;2.80;;;;;;;;;;4950575;29;20231;-81
2022/07/25 04:25:59;;;;;;;4.07;3.20;;;;;;;;;;4954262;28;20230;-81
2022/07/25 04:28:29;;;;;;;3.17;2.90;;;;;;;;;;4918122;28;20225;-81
2022/07/25 04:30:57;;;;;;;3.20;2.90;;;;;;;;;;4926755;29;20234;-82
2022/07/25 04:33:22;;;;;;;4.10;2.60;;;;;;;;;;4925098;28;20241;-81
2022/07/25 04:35:48;;;;;;;3.17;2.97;;;;;;;;;;4952183;28;20227;-81
2022/07/25 04:38:15;;;;;;;5.15;2.70;;;;;;;;;;4923545;28;20242;-82
2022/07/25 04:41:12;;;;;;;3.20;2.97;;;;;;;;;;4951248;29;20227;-81
2022/07/25 04:43:37;;;;;;;3.03;2.70;;;;;;;;;;4940175;28;20246;-81
2022/07/25 04:46:03;;;;;;;3.70;2.90;;;;;;;;;;4926534;28;20235;-79
2022/07/25 04:48:29;;;;;;;2.50;2.40;;;;;;;;;;4958188;29;20225;-80
2022/07/25 04:50:54;;;;;;;2.63;2.42;;;;;;;;;;4941088;29;20234;-81
2022/07/25 04:53:20;;;;;;;5.80;2.70;;;;;;;;;;4942129;28;20250;-79
2022/07/25 04:55:47;;;;;;;4.15;3.03;;;;;;;;;;4917453;29;20566;-81
2022/07/25 04:58:13;;;;;;;4.13;2.80;;;;;;;;;;4977098;28;20293;-81
2022/07/25 05:00:41;;;;;;;4.20;2.45;;;;;;;;;;4947842;29;20222;-81
2022/07/25 05:03:08;;;;;;;2.72;2.50;;;;;;;;;;4965190;28;20223;-80
2022/07/25 05:05:34;;;;;;;3.72;2.72;;;;;;;;;;4947978;29;20386;-80
2022/07/25 05:07:59;;;;;;;3.50;2.50;;;;;;;;;;4969085;28;20214;-80
2022/07/25 05:10:26;;;;;;;3.85;2.28;;;;;;;;;;4971985;28;20230;-80
2022/07/25 05:12:58;;;;;;;2.80;2.60;;;;;;;;;;4929356;29;20258;-81
2022/07/25 05:15:28;;;;;;;3.08;2.50;;;;;;;;;;4962109;28;20229;-82
2022/07/25 05:17:54;;;;;;;2.95;2.67;;;;;;;;;;4966196;28;20262;-80
2022/07/25 05:20:26;;;;;;;3.15;2.30;;;;;;;;;;4962198;28;20218;-81
2022/07/25 05:22:54;;;;;;;2.50;2.30;;;;;;;;;;4961638;29;20313;-82
2022/07/25 05:25:25;;;;;;;3.53;2.45;;;;;;;;;;4964517;28;20250;-81
2022/07/25 05:27:54;;;;;;;2.65;2.45;;;;;;;;;;4960626;28;20718;-81
2022/07/25 05:30:22;;;;;;;2.80;2.50;;;;;;;;;;4944685;28;20233;-79
2022/07/25 05:32:50;;;;;;;2.50;2.30;;;;;;;;;;4930495;23;20234;-75
2022/07/25 05:35:16;;;;;;;3.20;2.67;;;;;;;;;;4919106;28;20218;-74
2022/07/25 05:37:42;;;;;;;2.88;2.20;;;;;;;;;;4922318;29;20666;-75
2022/07/25 05:40:13;;;;;;;2.80;2.60;;;;;;;;;;4934549;29;20230;-73
2022/07/25 05:42:41;;;;;;;3.25;2.45;;;;;;;;;;4931120;29;20321;-72
2022/07/25 05:45:07;;;;;;;2.47;2.25;;;;;;;;;;4918889;28;20708;-73
2022/07/25 05:47:32;;;;;;;2.80;2.60;;;;;;;;;;4918565;29;20725;-74
2022/07/25 05:49:58;;;;;;;3.22;2.50;;;;;;;;;;4895427;29;20228;-74
2022/07/25 05:52:28;;;;;;;2.75;2.45;;;;;;;;;;4914130;28;20226;-74
2022/07/25 05:54:56;;;;;;;3.25;2.40;;;;;;;;;;4903281;29;20215;-72
2022/07/25 05:57:22;;;;;;;2.63;2.42;;;;;;;;;;4917105;29;20239;-73
2022/07/25 05:59:49;;;;;;;3.60;2.63;;;;;;;;;;4899415;29;20230;-73
2022/07/25 06:02:15;;;;;;;4.45;2.70;;;;;;;;;;4900068;29;20588;-74
2022/07/25 06:04:45;;;;;;;2.88;2.58;;;;;;;;;;4925357;29;20238;-75
2022/07/25 06:07:11;;;;;;;3.88;2.72;;;;;;;;;;4902750;28;20297;-76
2022/07/25 06:09:37;;;;;;;4.53;3.00;;;;;;;;;;4901080;29;20293;-72
2022/07/25 06:12:03;;;;;;;3.58;3.28;;;;;;;;;;4903703;28;20230;-74
2022/07/25 06:14:31;;;;;;;3.22;2.78;;;;;;;;;;4900602;29;20574;-75
2022/07/25 06:16:57;;;;;;;3.35;3.10;;;;;;;;;;4918101;29;20227;-74
2022/07/25 06:19:22;;;;;;;4.10;3.45;;;;;;;;;;4918768;29;20237;-74
2022/07/25 06:21:48;;;;;;;2.97;2.78;;;;;;;;;;4917721;29;20243;-72
2022/07/25 06:24:17;;;;;;;4.13;2.85;;;;;;;;;;4903810;29;20219;-73
2022/07/25 06:26:47;;;;;;;2.97;2.60;;;;;;;;;;4902092;29;20697;-72
2022/07/25 06:29:12;;;;;;;3.65;3.10;;;;;;;;;;4917515;29;20705;-73
2022/07/25 06:31:38;;;;;;;3.10;2.80;;;;;;;;;;4932580;29;20230;-73
2022/07/25 06:34:11;;;;;;;3.30;3.00;;;;;;;;;;4917299;29;20937;-73
2022/07/25 06:36:43;;;;;;;3.40;2.90;;;;;;;;;;4916321;29;20922;-73
2022/07/25 06:39:11;;;;;;;4.00;3.03;;;;;;;;;;4900041;29;20480;-75
2022/07/25 06:41:39;;;;;;;3.90;2.95;;;;;;;;;;4916799;29;20309;-74
2022/07/25 06:44:05;;;;;;;3.97;3.13;;;;;;;;;;4917508;29;20235;-75
2022/07/25 06:46:31;;;;;;;3.50;3.00;;;;;;;;;;4898324;29;20241;-76
2022/07/25 06:48:58;;;;;;;4.82;2.80;;;;;;;;;;4916113;29;20223;-75
2022/07/25 06:51:24;;;;;;;4.50;3.15;;;;;;;;;;4885261;29;20233;-75
2022/07/25 06:53:49;;;;;;;3.33;3.10;;;;;;;;;;4901596;29;20224;-74
2022/07/25 06:56:18;;;;;;;3.30;3.00;;;;;;;;;;4900523;29;20227;-74
2022/07/25 06:58:46;;;;;;;4.68;3.20;;;;;;;;;;4916304;29;20637;-73
2022/07/25 07:01:14;;;;;;;3.22;2.92;;;;;;;;;;4916357;29;20233;-76
2022/07/25 07:03:41;;;;;;;5.35;2.90;;;;;;;;;;4902922;29;20746;-75
2022/07/25 07:06:08;;;;;;;3.70;3.17;;;;;;;;;;4916724;28;20253;-74
2022/07/25 07:08:35;;;;;;;4.85;3.20;;;;;;;;;;4902935;29;20231;-74
2022/07/25 07:11:06;;;;;;;3.72;3.10;;;;;;;;;;4902327;29;20556;-74
2022/07/25 07:13:35;;;;;;;3.28;2.90;;;;;;;;;;4898915;29;20708;-75
2022/07/25 07:16:05;;;;;;;4.25;3.40;;;;;;;;;;4916708;29;20242;-74
2022/07/25 07:18:31;;;;;;;3.67;3.20;;;;;;;;;;4900653;29;20705;-75
2022/07/25 07:20:57;;;;;;;3.50;3.20;;;;;;;;;;4913270;29;20235;-75
2022/07/25 07:23:25;;;;;;;3.40;3.10;;;;;;;;;;4930320;29;20230;-74
2022/07/25 07:25:50;;;;;;;3.25;2.95;;;;;;;;;;4901969;29;20241;-73
2022/07/25 07:28:21;;;;;;;5.03;3.50;;;;;;;;;;4884376;29;20239;-74
2022/07/25 07:30:47;;;;;;;3.40;3.10;;;;;;;;;;4915607;29;20235;-75
2022/07/25 07:33:15;;;;;;;4.07;3.08;;;;;;;;;;4923935;28;20943;-75
2022/07/25 07:35:44;;;;;;;3.50;3.05;;;;;;;;;;4902199;29;20234;-76
2022/07/25 07:38:12;;;;;;;3.53;3.22;;;;;;;;;;4902514;28;20222;-76
2022/07/25 07:40:38;;;;;;;3.65;3.35;;;;;;;;;;4901483;28;20325;-74
2022/07/25 07:43:06;;;;;;;3.65;3.20;;;;;;;;;;4899460;29;20219;-75
2022/07/25 07:45:37;;;;;;;3.90;3.50;;;;;;;;;;4946115;28;20226;-74
2022/07/25 07:48:02;;;;;;;4.80;3.45;;;;;;;;;;4901681;29;20334;-74
2022/07/25 07:50:30;;;;;;;4.15;3.40;;;;;;;;;;4913797;29;20685;-75
2022/07/25 07:52:57;;;;;;;3.40;3.10;;;;;;;;;;4913312;28;20258;-76
2022/07/25 07:55:42;;;;;;;3.70;3.40;;;;;;;;;;4933617;28;20401;-75
2022/07/25 07:58:11;;;;;;;3.42;3.13;;;;;;;;;;4933912;28;20230;-73
2022/07/25 08:00:39;;;;;;;3.95;3.10;;;;;;;;;;4902018;29;20362;-74
2022/07/25 08:03:06;;;;;;;3.95;3.65;;;;;;;;;;4909653;28;20249;-74
2022/07/25 08:05:45;;;;;;;4.03;3.47;;;;;;;;;;4903287;28;20245;-76
2022/07/25 08:08:13;;;;;;;4.05;3.75;;;;;;;;;;4934209;28;20233;-74
2022/07/25 08:10:43;;;;;;;3.80;3.50;;;;;;;;;;4899571;29;20223;-76
2022/07/25 08:13:26;;;;;;;4.57;3.47;;;;;;;;;;4922419;28;20651;-76
2022/07/25 08:15:54;;;;;;;3.45;3.25;;;;;;;;;;4918139;29;20223;-74
2022/07/25 08:18:20;;;;;;;3.78;3.47;;;;;;;;;;4916423;28;20226;-73
2022/07/25 08:20:46;;;;;;;4.25;3.70;;;;;;;;;;4951090;28;20270;-73
2022/07/25 08:23:14;;;;;;;3.78;3.47;;;;;;;;;;4928856;28;20222;-75
2022/07/25 08:25:39;;;;;;;4.03;3.63;;;;;;;;;;4915701;28;20218;-75
2022/07/25 08:28:05;;;;;;;4.45;3.65;;;;;;;;;;4931390;29;20979;-75
2022/07/25 08:30:31;;;;;;;4.55;3.90;;;;;;;;;;4914781;29;20393;-74
2022/07/25 08:33:02;;;;;;;3.97;3.60;;;;;;;;;;4904074;28;20616;-73
2022/07/25 08:35:28;;;;;;;4.38;3.72;;;;;;;;;;4905955;28;20273;-74
2022/07/25 08:37:56;;;;;;;4.03;3.67;;;;;;;;;;4904678;28;20321;-75
2022/07/25 08:40:25;;;;;;;4.03;3.72;;;;;;;;;;4904302;29;20237;-75
2022/07/25 08:42:58;;;;;;;4.10;3.70;;;;;;;;;;4903504;29;20230;-75
2022/07/25 08:45:27;;;;;;;3.80;3.50;;;;;;;;;;4919308;28;20230;-76
2022/07/25 08:47:53;;;;;;;3.85;3.50;;;;;;;;;;4935733;29;20249;-74
2022/07/25 08:50:25;;;;;;;4.10;3.70;;;;;;;;;;4898902;29;20258;-75
2022/07/25 08:52:51;;;;;;;5.93;3.70;;;;;;;;;;4934608;29;20231;-74
2022/07/25 08:55:19;;;;;;;6.32;3.67;;;;;;;;;;4919449;28;20672;-74
2022/07/25 08:57:46;;;;;;;4.97;3.95;;;;;;;;;;4898471;29;20670;-74
2022/07/25 09:00:14;;;;;;;4.55;3.80;;;;;;;;;;4915292;29;20281;-74
2022/07/25 09:02:40;;;;;;;4.40;4.00;;;;;;;;;;4918657;29;20230;-74
2022/07/25 09:05:11;;;;;;;4.35;3.90;;;;;;;;;;4934892;28;20234;-75
2022/07/25 09:07:40;;;;;;;4.25;3.85;;;;;;;;;;4920698;29;20744;-74
2022/07/25 09:10:17;;;;;;;4.18;3.80;;;;;;;;;;4917004;29;20220;-75
2022/07/25 09:12:55;;;;;;;4.10;3.80;;;;;;;;;;4926257;29;20306;-75
2022/07/25 09:15:30;;;;;;;5.13;3.50;;;;;;;;;;4918234;28;20231;-74
2022/07/25 09:18:01;;;;;;;5.70;4.07;;;;;;;;;;4933995;29;20245;-74
2022/07/25 09:20:47;;;;;;;4.07;3.78;;;;;;;;;;4935037;29;20313;-75
2022/07/25 09:23:32;;;;;;;4.60;4.07;;;;;;;;;;4916480;29;20717;-74
2022/07/25 09:26:07;;;;;;;4.03;3.70;;;;;;;;;;4950759;28;20616;-74
2022/07/25 09:28:50;;;;;;;4.20;3.78;;;;;;;;;;4898094;29;20277;-74
2022/07/25 09:31:16;;;;;;;4.55;4.00;;;;;;;;;;4919150;28;20278;-73
2022/07/25 09:33:48;;;;;;;4.53;3.83;;;;;;;;;;4919391;29;20705;-74
2022/07/25 09:36:16;;;;;;;4.20;3.90;;;;;;;;;;4918141;28;20222;-74
2022/07/25 09:39:00;;;;;;;3.88;3.58;;;;;;;;;;4918988;29;20734;-76
2022/07/25 09:41:42;;;;;;;4.70;4.00;;;;;;;;;;4917327;29;20231;-74
2022/07/25 09:44:16;;;;;;;4.07;3.65;;;;;;;;;;4910781;28;20629;-74
2022/07/25 09:46:46;;;;;;;3.70;3.40;;;;;;;;;;4928474;29;20234;-73
2022/07/25 09:49:14;;;;;;;4.15;3.75;;;;;;;;;;4903402;28;20224;-75
2022/07/25 09:51:43;;;;;;;4.03;3.80;;;;;;;;;;4933774;29;20231;-73
2022/07/25 09:54:13;;;;;;;4.18;3.88;;;;;;;;;;4917209;28;20233;-74
2022/07/25 09:56:38;;;;;;;7.90;4.47;;;;;;;;;;4914352;29;20242;-74
2022/07/25 09:59:04;;;;;;;13.75;12.13;;;;;;;;;;4932828;28;20218;-75
2022/07/25 10:01:36;;;;;;;4.45;4.05;;;;;;;;;;4900944;29;20231;-74
2022/07/25 10:04:23;;;;;;;4.80;4.30;;;;;;;;;;4916708;28;20278;-74
2022/07/25 10:07:08;;;;;;;4.05;3.65;;;;;;;;;;4935244;29;20234;-75
2022/07/25 10:09:43;;;;;;;4.70;4.20;;;;;;;;;;4892304;29;20223;-76
2022/07/25 10:12:09;;;;;;;4.25;3.80;;;;;;;;;;4901935;28;20616;-74
2022/07/25 10:14:35;;;;;;;4.18;3.72;;;;;;;;;;4901015;29;20267;-75
2022/07/25 10:17:01;;;;;;;3.85;3.55;;;;;;;;;;4902312;28;20674;-74
2022/07/25 10:19:47;;;;;;;3.92;3.55;;;;;;;;;;4916690;29;20234;-74
2022/07/25 10:22:15;;;;;;;7.20;5.25;;;;;;;;;;4929982;28;20626;-75
2022/07/25 10:24:47;;;;;;;4.20;3.80;;;;;;;;;;4916251;29;20229;-74
2022/07/25 10:27:20;;;;;;;6.13;5.15;;;;;;;;;;4893334;29;20546;-73
2022/07/25 10:29:49;;;;;;;5.30;4.80;;;;;;;;;;4949274;29;20231;-72
2022/07/25 10:32:16;;;;;;;4.40;4.10;;;;;;;;;;4915533;29;20222;-75
2022/07/25 10:34:51;;;;;;;4.30;3.90;;;;;;;;;;4916001;29;20242;-75
2022/07/25 10:37:17;;;;;;;3.80;3.50;;;;;;;;;;4918509;28;20229;-74
2022/07/25 10:39:45;;;;;;;4.35;4.00;;;;;;;;;;4932608;29;20306;-73
2022/07/25 10:42:15;;;;;;;5.15;3.58;;;;;;;;;;4928956;28;20222;-75
2022/07/25 10:44:45;;;;;;;3.78;3.45;;;;;;;;;;4916138;29;20226;-76
2022/07/25 10:47:13;;;;;;;3.95;3.65;;;;;;;;;;4933257;28;20218;-74
2022/07/25 10:49:44;;;;;;;4.45;3.58;;;;;;;;;;4933373;29;20222;-75
2022/07/25 10:52:16;;;;;;;3.67;3.38;;;;;;;;;;4911992;29;20905;-73
2022/07/25 10:54:57;;;;;;;4.10;3.70;;;;;;;;;;4917271;28;20708;-74
2022/07/25 10:57:27;;;;;;;4.88;4.43;;;;;;;;;;4915591;29;20238;-76
2022/07/25 10:59:55;;;;;;;4.25;3.90;;;;;;;;;;4918465;29;20306;-75
2022/07/25 11:02:22;;;;;;;3.83;3.53;;;;;;;;;;4914632;29;20259;-72
2022/07/25 11:05:00;;;;;;;4.22;3.85;;;;;;;;;;4900628;29;20310;-74
2022/07/25 11:07:27;;;;;;;5.00;3.92;;;;;;;;;;4898884;29;20723;-73
2022/07/25 11:09:57;;;;;;;5.60;3.30;;;;;;;;;;4926269;28;20269;-75
2022/07/25 11:12:23;;;;;;;3.92;3.63;;;;;;;;;;4900934;29;20232;-75
2022/07/25 11:14:54;;;;;;;4.00;3.60;;;;;;;;;;4916247;28;20222;-75
2022/07/25 11:17:22;;;;;;;4.25;3.85;;;;;;;;;;4915620;29;20323;-74
2022/07/25 11:20:03;;;;;;;4.10;3.80;;;;;;;;;;4915990;29;20238;-75
2022/07/25 11:22:31;;;;;;;3.85;3.50;;;;;;;;;;4908591;29;20672;-75
2022/07/25 11:25:08;;;;;;;3.97;3.65;;;;;;;;;;4915550;28;21329;-75
2022/07/25 11:27:34;;;;;;;3.83;3.55;;;;;;;;;;4916072;29;20261;-75
2022/07/25 11:30:15;;;;;;;4.45;4.10;;;;;;;;;;4914218;28;20223;-75
2022/07/25 11:32:42;;;;;;;3.78;3.47;;;;;;;;;;4902641;29;20281;-75
2022/07/25 11:35:08;;;;;;;4.25;3.90;;;;;;;;;;4917232;28;20737;-73
2022/07/25 11:37:35;;;;;;;4.53;4.15;;;;;;;;;;4900588;29;20311;-74
2022/07/25 11:40:00;;;;;;;7.95;5.78;;;;;;;;;;4913027;29;20223;-73
2022/07/25 11:42:27;;;;;;;6.38;4.35;;;;;;;;;;4894770;29;20237;-74
2022/07/25 11:44:53;;;;;;;4.35;3.92;;;;;;;;;;4915929;29;20230;-73
2022/07/25 11:47:29;;;;;;;4.25;3.95;;;;;;;;;;4930178;29;20222;-73
2022/07/25 11:49:59;;;;;;;4.47;4.18;;;;;;;;;;4913706;28;20969;-72
2022/07/25 11:52:38;;;;;;;4.70;4.30;;;;;;;;;;4916487;29;20226;-73
2022/07/25 11:55:08;;;;;;;4.50;4.10;;;;;;;;;;4947060;28;20648;-73
2022/07/25 11:57:34;;;;;;;4.57;4.15;;;;;;;;;;4918399;29;20978;-73
2022/07/25 12:00:09;;;;;;;4.43;4.03;;;;;;;;;;4931026;29;20241;-73
2022/07/25 12:02:35;;;;;;;4.70;4.20;;;;;;;;;;4883032;29;20828;-74
2022/07/25 12:05:12;;;;;;;5.15;3.95;;;;;;;;;;4900543;28;20254;-73
2022/07/25 12:07:48;;;;;;;4.68;4.30;;;;;;;;;;4930194;29;20373;-74
2022/07/25 12:10:20;;;;;;;4.53;4.10;;;;;;;;;;4931335;28;20246;-74
2022/07/25 12:12:53;;;;;;;4.35;4.03;;;;;;;;;;4912212;29;20302;-74
2022/07/25 12:15:26;;;;;;;5.10;4.28;;;;;;;;;;4916725;28;20611;-73
2022/07/25 12:17:57;;;;;;;4.53;4.13;;;;;;;;;;4897488;28;20269;-72
2022/07/25 12:20:29;;;;;;;4.30;3.95;;;;;;;;;;4914261;28;20324;-72
2022/07/25 12:22:59;;;;;;;4.97;4.57;;;;;;;;;;4914963;29;20693;-75
2022/07/25 12:25:26;;;;;;;4.85;4.45;;;;;;;;;;4915751;28;20238;-75
2022/07/25 12:27:54;;;;;;;4.50;4.10;;;;;;;;;;4929989;29;20626;-74
2022/07/25 12:30:19;;;;;;;4.90;4.35;;;;;;;;;;4897346;29;20214;-74
2022/07/25 12:32:47;;;;;;;4.65;4.28;;;;;;;;;;4912829;29;20685;-73
2022/07/25 12:35:13;;;;;;;4.78;4.38;;;;;;;;;;4914249;28;20222;-74
2022/07/25 12:37:42;;;;;;;4.88;4.47;;;;;;;;;;4928651;29;20234;-75
2022/07/25 12:40:12;;;;;;;5.05;4.63;;;;;;;;;;4897207;29;20222;-73
2022/07/25 12:42:38;;;;;;;5.70;4.68;;;;;;;;;;4913192;29;20279;-73
2022/07/25 12:45:04;;;;;;;5.13;4.43;;;;;;;;;;4930161;28;20222;-74
2022/07/25 12:47:32;;;;;;;5.57;4.88;;;;;;;;;;4929199;29;20227;-72
2022/07/25 12:50:02;;;;;;;4.80;4.40;;;;;;;;;;4915309;28;20230;-72
2022/07/25 12:52:28;;;;;;;4.88;4.47;;;;;;;;;;4916101;29;20587;-73
2022/07/25 12:54:58;;;;;;;4.80;4.00;;;;;;;;;;4916969;29;20227;-74
2022/07/25 12:57:24;;;;;;;4.75;4.35;;;;;;;;;;4900052;29;20239;-73
2022/07/25 12:59:54;;;;;;;4.47;4.10;;;;;;;;;;4915653;29;20244;-72
2022/07/25 13:02:20;;;;;;;6.28;4.50;;;;;;;;;;4913454;29;20227;-75
2022/07/25 13:04:47;;;;;;;5.65;4.28;;;;;;;;;;4914290;29;20211;-72
2022/07/25 13:07:14;;;;;;;4.95;4.55;;;;;;;;;;4915450;28;20229;-72
2022/07/25 13:09:42;;;;;;;4.57;4.13;;;;;;;;;;4915575;29;20370;-73
2022/07/25 13:12:10;;;;;;;5.03;4.22;;;;;;;;;;4925523;28;20223;-74
2022/07/25 13:14:36;;;;;;;4.30;4.00;;;;;;;;;;4930925;29;20231;-73
2022/07/25 13:17:03;;;;;;;6.78;4.32;;;;;;;;;;4897996;29;20302;-74
2022/07/25 13:19:31;;;;;;;4.70;4.28;;;;;;;;;;4901678;29;20250;-75
2022/07/25 13:21:57;;;;;;;5.75;4.32;;;;;;;;;;4916632;28;20243;-72
2022/07/25 13:24:23;;;;;;;5.43;4.15;;;;;;;;;;4952031;28;20248;-71
2022/07/25 13:26:48;;;;;;;4.50;4.10;;;;;;;;;;4948457;28;20326;-73
2022/07/25 13:29:16;;;;;;;6.32;5.00;;;;;;;;;;4917114;28;20231;-75
2022/07/25 13:31:41;;;;;;;7.35;4.32;;;;;;;;;;4933316;29;20285;-75
2022/07/25 13:34:07;;;;;;;4.93;4.35;;;;;;;;;;4934142;29;20223;-74
2022/07/25 13:36:38;;;;;;;4.35;3.95;;;;;;;;;;4931262;29;20731;-73
2022/07/25 13:39:05;;;;;;;4.60;4.20;;;;;;;;;;4916837;29;20231;-74
2022/07/25 13:41:31;;;;;;;4.90;4.10;;;;;;;;;;4933595;29;20253;-73
2022/07/25 13:43:57;;;;;;;4.28;3.90;;;;;;;;;;4935402;29;20222;-74
2022/07/25 13:46:23;;;;;;;4.95;4.47;;;;;;;;;;4933912;29;20289;-75
2022/07/25 13:48:48;;;;;;;4.22;3.92;;;;;;;;;;4917740;29;20629;-74
2022/07/25 13:51:14;;;;;;;4.53;4.13;;;;;;;;;;4912348;29;20215;-73
2022/07/25 13:53:43;;;;;;;4.18;3.83;;;;;;;;;;4909125;29;20282;-75
2022/07/25 13:56:09;;;;;;;4.72;4.22;;;;;;;;;;4917680;29;20227;-74
2022/07/25 13:58:35;;;;;;;6.43;4.38;;;;;;;;;;4917738;29;20290;-73
2022/07/25 14:01:00;;;;;;;5.20;4.07;;;;;;;;;;4913017;29;20898;-72
2022/07/25 14:03:26;;;;;;;4.35;3.95;;;;;;;;;;4901257;29;20219;-76
2022/07/25 14:05:51;;;;;;;4.80;4.10;;;;;;;;;;4950015;28;20941;-75
2022/07/25 14:08:17;;;;;;;3.70;3.47;;;;;;;;;;4917789;29;20755;-74
2022/07/25 14:10:47;;;;;;;4.55;4.15;;;;;;;;;;4917218;29;20230;-76
2022/07/25 14:13:15;;;;;;;4.20;3.90;;;;;;;;;;4917621;29;20219;-73
2022/07/25 14:15:40;;;;;;;4.60;4.20;;;;;;;;;;4949999;28;20223;-73
2022/07/25 14:18:06;;;;;;;4.43;4.03;;;;;;;;;;4916934;29;20247;-75
2022/07/25 14:20:32;;;;;;;4.50;4.10;;;;;;;;;;4934759;29;20278;-74
2022/07/25 14:22:57;;;;;;;4.45;3.80;;;;;;;;;;4915699;29;20218;-75
2022/07/25 14:25:27;;;;;;;5.00;3.95;;;;;;;;;;4916082;28;20900;-75
2022/07/25 14:27:53;;;;;;;4.50;4.10;;;;;;;;;;4934052;28;20241;-75
2022/07/25 14:30:20;;;;;;;4.47;4.18;;;;;;;;;;4900648;28;20297;-75
2022/07/25 14:32:50;;;;;;;4.10;3.75;;;;;;;;;;4904771;29;20262;-76
2022/07/25 14:35:19;;;;;;;4.68;4.25;;;;;;;;;;4914412;28;20799;-76
2022/07/25 14:37:47;;;;;;;4.75;4.35;;;;;;;;;;4918316;29;20235;-76
2022/07/25 14:40:13;;;;;;;5.25;4.20;;;;;;;;;;4915820;29;20283;-75
2022/07/25 14:42:40;;;;;;;4.78;4.13;;;;;;;;;;4902509;29;20223;-74
2022/07/25 14:45:07;;;;;;;4.68;4.25;;;;;;;;;;4916281;29;20748;-75
2022/07/25 14:47:38;;;;;;;4.60;4.20;;;;;;;;;;4913576;29;20234;-75
2022/07/25 14:50:04;;;;;;;4.93;4.40;;;;;;;;;;4919034;29;20234;-75